SBGR/GRU METAR and TAF weather

Enter ICAO airport designator
Station Type Date Time Source
SBGR METAR 2021/09/16 10:00 UTC NOAA

SBGR 161000Z 13007KT 9999 BKN008 18/16 Q1026


Station Type Date Time Source
SBGR Decoded METAR 2021/09/16 10:00 UTC NOAA

Guarulhos Civ / Mil , Brazil (SBGR) 23-26S 046-28W
Sep 16, 2021 - 06:00 AM EDT / 2021.09.16 1000 UTC
Wind: from the SE (130 degrees) at 8 MPH (7 KT):0
Visibility: greater than 7 mile(s):0
Sky conditions: mostly cloudy
Temperature: 64 F (18 C)
Dew Point: 60 F (16 C)
Relative Humidity: 88%
Pressure (altimeter): 30.30 in. Hg (1026 hPa)
ob: SBGR 161000Z 13007KT 9999 BKN008 18/16 Q1026
cycle: 10

Station Type Date Time Source
SBGR TAF 2021/09/16 06:54 UTC NOAA

TAF SBGR 160345Z 1606/1712 12006KT 9000 OVC013 TX21/1618Z TN15/1709Z PROB30 1608/1611 4000 BR OVC005
BECMG 1611/1613 BKN025 PROB40 1613/1617 08010KT
BECMG 1619/1621 BKN011 PROB30 1621/1624 5000 RA BR BKN009
BECMG 1701/1703 08008KT PROB40 1708/1711 5000 BR
RMK PGE

Example: see airport list